Time;durP1;ratioP1;P1;durP2;ratioP2;P2;SDS_P1;SDS_P2;PMS_P1;PMS_P2;Temp;Humidity;BMP_temperature;BMP_pressure;BME280_temperature;BME280_humidity;BME280_pressure;Samples;Min_cycle;Max_cycle;Signal;HPM_P1;HPM_P2
2023/03/18 00:02:20;;;;;;;8.48;2.85;;;;;;;-0.63;38.71;101500.88;5012797;28;20057;-52
2023/03/18 00:04:46;;;;;;;8.30;2.88;;;;;;;-0.64;38.63;101495.63;5011448;28;20357;-54
2023/03/18 00:07:11;;;;;;;6.53;2.70;;;;;;;-0.49;38.90;101498.13;5012262;28;20037;-51
2023/03/18 00:09:37;;;;;;;5.53;2.60;;;;;;;-0.58;38.52;101500.84;5011361;28;20034;-51
2023/03/18 00:12:03;;;;;;;5.55;2.42;;;;;;;-0.73;39.13;101494.78;5027756;28;20033;-48
2023/03/18 00:14:30;;;;;;;10.93;3.03;;;;;;;-0.72;39.27;101493.03;5022055;28;20061;-50
2023/03/18 00:16:56;;;;;;;4.93;2.22;;;;;;;-0.55;38.79;101499.97;5011923;28;20029;-60
2023/03/18 00:19:23;;;;;;;5.38;2.13;;;;;;;-0.69;39.61;101505.31;5011932;28;20032;-52
2023/03/18 00:21:49;;;;;;;6.63;2.58;;;;;;;-0.65;39.31;101505.25;5012233;28;20034;-52
2023/03/18 00:24:15;;;;;;;7.35;2.78;;;;;;;-0.61;38.82;101500.88;5023081;28;20446;-49
2023/03/18 00:26:42;;;;;;;6.97;2.67;;;;;;;-0.83;39.73;101501.00;5035658;28;20367;-53
2023/03/18 00:29:08;;;;;;;7.55;2.45;;;;;;;-0.43;38.38;101510.38;5035702;28;20329;-51
2023/03/18 00:31:35;;;;;;;7.82;2.25;;;;;;;-0.36;38.73;101508.56;5035719;28;20026;-49
2023/03/18 00:34:01;;;;;;;6.55;2.70;;;;;;;-0.63;38.81;101497.38;5035460;28;20104;-50
2023/03/18 00:36:26;;;;;;;6.80;2.67;;;;;;;-0.64;39.17;101516.69;5035401;28;20104;-61
2023/03/18 00:38:56;;;;;;;7.63;2.25;;;;;;;-0.48;38.63;101518.31;5027537;28;20065;-50
2023/03/18 00:41:31;;;;;;;6.00;2.35;;;;;;;-0.64;39.27;101514.91;5015746;28;20069;-52
2023/03/18 00:43:57;;;;;;;;;;;;;;;-0.30;38.63;101511.16;5016098;28;20038;-61
2023/03/18 00:46:35;;;;;;;5.90;2.42;;;;;;;-0.55;39.40;101519.22;5014969;28;19909;-49
2023/03/18 00:49:03;;;;;;;7.60;2.92;;;;;;;-1.18;39.90;101450.38;5026338;28;20037;-52
2023/03/18 00:51:31;;;;;;;7.38;2.90;;;;;;;-0.73;39.55;101518.47;5035008;28;20041;-51
2023/03/18 00:53:59;;;;;;;9.75;3.00;;;;;;;-0.82;40.08;101515.91;5035465;28;20123;-51
2023/03/18 00:56:28;;;;;;;5.82;3.10;;;;;;;-0.97;40.56;101510.72;5035452;28;20044;-52
2023/03/18 00:58:54;;;;;;;6.57;2.67;;;;;;;-0.81;39.90;101514.16;5034992;28;20029;-51
2023/03/18 01:01:20;;;;;;;7.05;2.70;;;;;;;-0.70;39.46;101517.59;5035058;28;20049;-50
2023/03/18 01:03:48;;;;;;;11.38;2.83;;;;;;;-0.68;39.94;101517.59;5035387;28;20030;-51
2023/03/18 01:06:21;;;;;;;7.13;2.78;;;;;;;-0.83;40.39;101521.19;5033703;28;20026;-52
2023/03/18 01:08:47;;;;;;;7.18;2.50;;;;;;;-1.07;40.07;101484.50;5034961;28;20329;-50
2023/03/18 01:11:13;;;;;;;9.60;3.00;;;;;;;-1.02;40.90;101511.63;5035004;28;20025;-53
2023/03/18 01:13:39;;;;;;;11.38;2.90;;;;;;;-0.92;40.26;101512.44;5022211;28;20041;-54
2023/03/18 01:16:06;;;;;;;7.38;3.00;;;;;;;-1.00;40.83;101530.03;5015047;28;20198;-52
2023/03/18 01:18:33;;;;;;;8.30;2.85;;;;;;;-0.63;39.94;101526.31;5014948;28;20041;-50
2023/03/18 01:20:59;;;;;;;8.35;3.10;;;;;;;-0.85;40.48;101534.34;5015360;28;20663;-58
2023/03/18 01:23:25;;;;;;;6.70;2.53;;;;;;;-0.97;41.02;101537.00;5014602;28;20481;-53
2023/03/18 01:25:51;;;;;;;9.57;2.97;;;;;;;-0.99;41.23;101531.78;5014685;28;20041;-51
2023/03/18 01:28:17;;;;;;;6.85;2.95;;;;;;;-1.04;41.50;101544.94;5014448;28;20048;-48
2023/03/18 01:30:42;;;;;;;9.88;2.65;;;;;;;-1.17;41.03;101519.59;5014029;28;20038;-51
2023/03/18 01:33:08;;;;;;;7.35;3.10;;;;;;;-1.15;41.72;101546.75;5014805;28;20030;-51
2023/03/18 01:35:35;;;;;;;5.93;2.58;;;;;;;-1.24;41.94;101552.91;5014352;28;20044;-52
2023/03/18 01:38:03;;;;;;;7.63;2.88;;;;;;;-1.05;41.42;101551.06;5025169;28;20053;-63
2023/03/18 01:40:33;;;;;;;8.65;3.08;;;;;;;-1.16;41.98;101550.25;5034827;28;20262;-55
2023/03/18 01:43:12;;;;;;;6.60;2.85;;;;;;;-1.35;42.23;101554.69;5034719;28;20025;-52
2023/03/18 01:45:37;;;;;;;6.38;2.83;;;;;;;-1.54;42.64;101565.28;5034358;28;20041;-53
2023/03/18 01:48:03;;;;;;;9.23;3.38;;;;;;;-1.52;43.07;101554.75;5034091;28;20075;-51
2023/03/18 01:50:34;;;;;;;10.43;2.60;;;;;;;-1.32;42.32;101566.06;5034647;28;20133;-51
2023/03/18 01:53:10;;;;;;;7.47;2.53;;;;;;;-1.33;42.51;101572.22;5033259;28;20476;-50
2023/03/18 01:55:37;;;;;;;7.68;2.50;;;;;;;-1.39;42.68;101566.97;5033690;28;20041;-49
2023/03/18 01:58:07;;;;;;;7.93;2.63;;;;;;;-1.18;41.89;101573.06;5030140;28;20029;-51
2023/03/18 02:00:37;;;;;;;9.05;2.97;;;;;;;-1.25;41.87;101582.72;5014523;28;20034;-51
2023/03/18 02:03:03;;;;;;;10.82;3.45;;;;;;;-1.22;41.82;101576.53;5014221;28;20033;-52
2023/03/18 02:05:29;;;;;;;8.70;2.92;;;;;;;-1.31;42.25;101573.09;5014294;28;20338;-53
2023/03/18 02:07:55;;;;;;;7.50;3.00;;;;;;;-1.21;42.14;101570.41;5013817;28;20118;-49
2023/03/18 02:10:26;;;;;;;9.60;2.40;;;;;;;-1.38;42.57;101587.13;5013875;28;20117;-50
2023/03/18 02:12:57;;;;;;;8.05;2.92;;;;;;;-1.53;42.62;101588.03;5013805;28;20029;-53
2023/03/18 02:15:24;;;;;;;8.77;2.72;;;;;;;-1.62;42.83;101590.66;5013997;28;20149;-52
2023/03/18 02:18:07;;;;;;;7.57;2.50;;;;;;;-1.55;43.59;101592.44;5013664;28;20073;-51
2023/03/18 02:20:33;;;;;;;6.65;2.92;;;;;;;-1.58;43.36;101595.03;5013046;28;20033;-62
2023/03/18 02:23:21;;;;;;;7.20;2.70;;;;;;;-1.41;42.94;101596.75;5019951;28;20440;-50
2023/03/18 02:26:16;;;;;;;10.25;2.60;;;;;;;-1.51;42.62;101604.66;5033424;28;20112;-52
2023/03/18 02:28:43;;;;;;;5.97;2.60;;;;;;;-1.60;43.42;101608.19;5032934;28;20119;-50
2023/03/18 02:31:11;;;;;;;6.72;2.70;;;;;;;-1.59;43.02;101604.69;5033565;28;20026;-54
2023/03/18 02:33:40;;;;;;;6.72;2.45;;;;;;;-1.54;43.61;101603.78;5033596;28;20028;-54
2023/03/18 02:36:25;;;;;;;5.82;2.42;;;;;;;-1.41;42.87;101599.38;5032648;28;20444;-54
2023/03/18 02:38:51;;;;;;;9.90;2.65;;;;;;;-1.41;42.88;101605.53;5017681;28;20381;-50
2023/03/18 02:41:20;;;;;;;6.57;2.55;;;;;;;-1.56;43.21;101608.19;5013675;28;20033;-52
2023/03/18 02:43:47;;;;;;;7.15;2.50;;;;;;;-1.55;43.48;101604.66;5013236;28;20026;-51
2023/03/18 02:46:30;;;;;;;8.05;2.42;;;;;;;-1.48;43.15;101624.78;5013581;28;20034;-52
2023/03/18 02:48:59;;;;;;;12.80;2.33;;;;;;;-1.56;42.91;101618.69;5013521;28;20038;-52
2023/03/18 02:51:25;;;;;;;6.03;2.33;;;;;;;-1.52;43.23;101617.78;5013393;28;20055;-52
2023/03/18 02:53:54;;;;;;;4.45;1.80;;;;;;;-1.47;43.28;101631.78;5013020;28;20030;-52
2023/03/18 02:56:20;;;;;;;5.70;2.15;;;;;;;-1.59;43.26;101624.81;5012369;28;20029;-51
2023/03/18 02:58:45;;;;;;;6.50;2.33;;;;;;;-1.69;43.63;101637.06;5013247;28;20353;-49
2023/03/18 03:01:12;;;;;;;6.50;2.35;;;;;;;-1.69;43.62;101628.31;5021461;28;20108;-52
2023/03/18 03:03:39;;;;;;;7.72;2.58;;;;;;;-1.61;43.36;101629.19;5033000;28;20048;-54
2023/03/18 03:06:06;;;;;;;6.78;2.45;;;;;;;-1.61;43.28;101634.44;5033092;28;20037;-60
2023/03/18 03:08:31;;;;;;;6.95;2.72;;;;;;;-1.60;42.83;101644.06;5033090;28;20033;-52
2023/03/18 03:10:57;;;;;;;6.90;2.30;;;;;;;-1.64;43.07;101644.94;5032664;28;20110;-49
2023/03/18 03:13:23;;;;;;;4.90;2.55;;;;;;;-1.75;44.14;101634.44;5032744;28;20108;-50
2023/03/18 03:15:50;;;;;;;7.55;2.35;;;;;;;-1.70;43.34;101639.72;5032354;28;20132;-54
2023/03/18 03:18:15;;;;;;;5.90;2.33;;;;;;;-1.72;43.83;101650.19;5032946;28;20091;-55
2023/03/18 03:20:42;;;;;;;6.35;2.47;;;;;;;-1.81;44.11;101647.59;5032346;28;20037;-49
2023/03/18 03:23:11;;;;;;;4.40;2.28;;;;;;;-1.61;43.53;101651.09;5032494;28;20033;-49
2023/03/18 03:25:38;;;;;;;5.72;2.90;;;;;;;-1.66;43.50;101650.22;5023469;28;20471;-56
2023/03/18 03:28:05;;;;;;;11.30;2.63;;;;;;;-1.66;43.90;101651.97;5013211;28;20029;-52
2023/03/18 03:30:31;;;;;;;9.55;1.92;;;;;;;-1.70;42.99;101643.19;5012759;28;20461;-51
2023/03/18 03:32:57;;;;;;;4.85;2.40;;;;;;;-1.74;43.35;101641.44;5012709;28;20030;-49
2023/03/18 03:35:23;;;;;;;6.13;2.75;;;;;;;-1.64;43.44;101642.31;5012619;28;20030;-49
2023/03/18 03:37:50;;;;;;;7.60;2.63;;;;;;;-1.69;43.70;101650.19;5012702;28;20058;-50
2023/03/18 03:40:17;;;;;;;5.30;2.30;;;;;;;-1.77;44.07;101644.97;5012463;28;20041;-51
2023/03/18 03:42:44;;;;;;;9.98;3.15;;;;;;;-1.56;43.17;101644.94;5011534;28;20072;-48
2023/03/18 03:45:12;;;;;;;6.55;2.42;;;;;;;-1.54;43.29;101651.06;5012785;28;20076;-51
2023/03/18 03:47:39;;;;;;;5.20;2.28;;;;;;;-1.62;42.98;101646.72;4995640;28;20360;-53
2023/03/18 03:50:05;;;;;;;6.22;2.45;;;;;;;-1.67;43.33;101648.47;5021016;28;20030;-52
2023/03/18 03:52:32;;;;;;;6.80;2.65;;;;;;;-1.71;43.46;101651.94;5032442;28;20032;-50
2023/03/18 03:54:59;;;;;;;4.70;2.50;;;;;;;-1.73;44.55;101649.34;5032510;28;20103;-52
2023/03/18 03:57:26;;;;;;;5.35;2.22;;;;;;;-1.56;43.33;101652.84;5032395;28;20485;-49
2023/03/18 03:59:52;;;;;;;7.50;2.83;;;;;;;-1.65;43.84;101659.84;5035008;28;20440;-50
2023/03/18 04:02:19;;;;;;;10.65;2.50;;;;;;;-1.64;43.68;101637.97;5036082;28;20030;-54
2023/03/18 04:04:45;;;;;;;5.00;2.55;;;;;;;-1.33;42.72;101665.94;5034530;28;20466;-48
2023/03/18 04:07:11;;;;;;;6.45;2.58;;;;;;;-1.41;43.15;101660.72;5036186;28;20045;-52
2023/03/18 04:09:37;;;;;;;5.00;2.70;;;;;;;-1.45;43.48;101653.69;5036135;28;20032;-51
2023/03/18 04:12:04;;;;;;;9.63;2.53;;;;;;;-1.37;43.50;101667.69;5034995;28;20127;-52
2023/03/18 04:14:30;;;;;;;9.70;2.55;;;;;;;-1.34;44.05;101666.81;5028042;28;20464;-55
2023/03/18 04:16:57;;;;;;;10.90;2.53;;;;;;;-1.30;43.28;101669.44;5016112;28;20030;-58
2023/03/18 04:19:24;;;;;;;6.47;2.65;;;;;;;-1.08;43.96;101668.53;5015901;28;20425;-51
2023/03/18 04:21:50;;;;;;;8.20;2.75;;;;;;;0.04;41.88;101662.72;5016087;28;20061;-52
2023/03/18 04:24:16;;;;;;;8.10;3.17;;;;;;;2.21;38.16;101665.50;5015293;28;20034;-52
2023/03/18 04:26:42;;;;;;;8.45;2.80;;;;;;;4.22;34.83;101658.84;5015981;28;20042;-52
2023/03/18 04:29:07;;;;;;;7.70;2.60;;;;;;;5.76;31.89;101658.16;5016213;28;20338;-51
2023/03/18 04:31:33;;;;;;;12.43;2.78;;;;;;;7.00;29.68;101654.09;5015714;28;20064;-54
2023/03/18 04:33:58;;;;;;;6.30;2.53;;;;;;;7.99;28.22;101648.59;5016650;28;20033;-53
2023/03/18 04:36:24;;;;;;;6.60;2.40;;;;;;;9.11;26.84;101654.56;5015813;28;20358;-53
2023/03/18 04:38:50;;;;;;;7.43;2.72;;;;;;;10.27;25.01;101665.16;5021372;28;20052;-53
2023/03/18 04:41:16;;;;;;;8.27;2.83;;;;;;;10.96;24.44;101669.75;5035258;28;20032;-53
2023/03/18 04:43:43;;;;;;;3.83;2.20;;;;;;;11.48;23.35;101661.59;5035644;28;20033;-52
2023/03/18 04:46:10;;;;;;;5.18;2.45;;;;;;;11.74;22.96;101661.97;5035644;28;20068;-50
2023/03/18 04:48:37;;;;;;;4.03;2.17;;;;;;;12.55;22.06;101672.63;5042662;28;20063;-49
2023/03/18 04:51:02;;;;;;;5.30;2.25;;;;;;;13.56;20.80;101671.88;5045864;28;20032;-53
2023/03/18 04:53:28;;;;;;;4.38;1.80;;;;;;;13.85;20.32;101670.00;5040383;28;20116;-54
2023/03/18 04:55:54;;;;;;;3.58;1.98;;;;;;;14.35;19.52;101667.63;5035075;28;20029;-58
2023/03/18 04:58:19;;;;;;;6.85;2.40;;;;;;;15.16;18.97;101666.66;5034421;28;20064;-55
2023/03/18 05:00:45;;;;;;;7.15;2.13;;;;;;;15.77;18.36;101666.78;5035193;28;20060;-53
2023/03/18 05:03:11;;;;;;;2.97;2.05;;;;;;;16.82;17.44;101670.72;5034658;28;20029;-55
2023/03/18 05:05:36;;;;;;;6.53;2.30;;;;;;;17.83;16.37;101668.16;5029716;28;20045;-52
2023/03/18 05:08:02;;;;;;;5.78;2.13;;;;;;;18.87;15.38;101680.38;5033687;28;20033;-54
2023/03/18 05:10:28;;;;;;;4.00;2.10;;;;;;;19.67;14.68;101675.22;5027113;28;20358;-53
2023/03/18 05:12:54;;;;;;;7.65;2.00;;;;;;;20.05;14.64;101648.28;5038599;28;20403;-50
2023/03/18 05:15:19;;;;;;;9.40;2.47;;;;;;;20.46;13.78;101670.75;5055030;28;20481;-53
2023/03/18 05:17:45;;;;;;;3.88;2.03;;;;;;;20.92;13.54;101670.13;5054570;28;20033;-54
2023/03/18 05:20:12;;;;;;;10.60;2.88;;;;;;;21.05;13.26;101678.84;5055051;28;20426;-50
2023/03/18 05:22:38;;;;;;;7.40;2.40;;;;;;;21.13;13.30;101678.13;5054648;28;20044;-49
2023/03/18 05:25:05;;;;;;;4.63;2.15;;;;;;;21.76;12.65;101681.19;5042828;28;20056;-46
2023/03/18 05:27:31;;;;;;;3.22;2.13;;;;;;;21.89;12.54;101672.63;5045313;28;20036;-51
2023/03/18 05:29:56;;;;;;;3.72;2.47;;;;;;;22.63;11.95;101676.09;5054504;28;20371;-60
2023/03/18 05:32:22;;;;;;;4.10;2.13;;;;;;;23.25;11.46;101679.78;5037690;28;20068;-53
2023/03/18 05:34:47;;;;;;;5.07;2.08;;;;;;;23.64;10.93;101684.75;5033739;28;20065;-51
2023/03/18 05:37:14;;;;;;;4.78;2.40;;;;;;;23.49;11.15;101687.22;5034399;28;20050;-49
2023/03/18 05:39:40;;;;;;;5.13;2.00;;;;;;;23.68;10.85;101687.16;5034620;28;20048;-53
2023/03/18 05:42:08;;;;;;;5.45;2.10;;;;;;;23.41;10.88;101678.16;5034794;28;20363;-55
2023/03/18 05:44:34;;;;;;;5.60;2.00;;;;;;;23.83;10.59;101671.81;5051686;28;20025;-52
2023/03/18 05:47:00;;;;;;;3.00;1.88;;;;;;;24.82;10.27;101675.69;5053788;28;20048;-54
2023/03/18 05:49:26;;;;;;;7.32;2.10;;;;;;;24.60;9.72;101672.63;5054009;28;20029;-51
2023/03/18 05:51:52;;;;;;;2.83;1.92;;;;;;;25.22;9.72;101687.63;5054543;28;20032;-52
2023/03/18 05:54:17;;;;;;;4.55;2.17;;;;;;;25.89;9.41;101672.63;5053581;28;20029;-55
2023/03/18 05:56:44;;;;;;;5.00;2.05;;;;;;;26.64;8.63;101680.34;5054017;28;20032;-53
2023/03/18 05:59:11;;;;;;;3.72;1.95;;;;;;;26.88;8.57;101683.94;5040296;28;20026;-71
2023/03/18 06:01:37;;;;;;;4.20;2.10;;;;;;;26.80;8.50;101685.69;5025760;28;20360;-61
2023/03/18 06:04:05;;;;;;;3.33;1.92;;;;;;;27.57;8.26;101702.09;5028361;28;20108;-52
2023/03/18 06:06:31;;;;;;;5.35;1.70;;;;;;;27.74;7.88;101693.63;5033407;28;20068;-54
2023/03/18 06:08:57;;;;;;;4.95;1.77;;;;;;;28.45;7.70;101687.41;5032624;28;20037;-55
2023/03/18 06:11:23;;;;;;;3.50;2.15;;;;;;;28.86;7.05;101693.28;5033666;28;20026;-54
2023/03/18 06:13:49;;;;;;;6.20;1.80;;;;;;;29.02;7.65;101693.00;5033315;28;20079;-58
2023/03/18 06:16:15;;;;;;;5.75;2.10;;;;;;;29.43;7.11;101693.28;5033876;28;20120;-58
2023/03/18 06:18:41;;;;;;;4.90;1.77;;;;;;;30.01;6.69;101692.88;5020514;28;20481;-51
2023/03/18 06:21:08;;;;;;;3.30;1.83;;;;;;;30.68;6.76;101700.44;5012522;28;20041;-54
2023/03/18 06:23:34;;;;;;;5.40;2.10;;;;;;;31.30;6.09;101702.94;5013916;28;20037;-55
2023/03/18 06:26:01;;;;;;;3.05;1.65;;;;;;;31.59;6.05;101694.31;5013438;28;20389;-55
2023/03/18 06:28:26;;;;;;;6.88;2.22;;;;;;;32.03;5.80;101706.50;5012333;28;20026;-56
2023/03/18 06:30:56;;;;;;;6.80;2.13;;;;;;;32.08;5.79;101709.44;5013667;28;20445;-54
2023/03/18 06:33:24;;;;;;;3.03;1.85;;;;;;;31.59;5.51;101709.03;5013646;28;20049;-54
2023/03/18 06:35:49;;;;;;;3.63;2.05;;;;;;;30.93;5.86;101675.72;5013308;28;20408;-54
2023/03/18 06:38:15;;;;;;;4.50;2.08;;;;;;;30.65;6.37;101706.41;5013548;28;20054;-53
2023/03/18 06:40:43;;;;;;;4.45;2.08;;;;;;;31.02;6.11;101701.25;5013738;28;20061;-58
2023/03/18 06:43:09;;;;;;;4.93;2.17;;;;;;;31.60;5.85;101679.41;5024933;28;20420;-52
2023/03/18 06:45:35;;;;;;;6.03;1.95;;;;;;;31.92;5.38;101696.09;5033019;28;20037;-56
2023/03/18 06:48:00;;;;;;;6.80;2.10;;;;;;;32.07;5.30;101701.34;5033352;28;20067;-52
2023/03/18 06:50:26;;;;;;;3.88;2.10;;;;;;;32.53;5.40;101704.03;5033231;28;20133;-53
2023/03/18 06:52:52;;;;;;;4.93;2.05;;;;;;;32.87;5.18;101712.94;5032610;28;20037;-57
2023/03/18 06:55:18;;;;;;;3.72;1.88;;;;;;;33.09;4.83;101713.38;5036656;28;20044;-59
2023/03/18 06:57:44;;;;;;;4.95;2.10;;;;;;;33.30;4.67;101709.31;5031850;28;20125;-57
2023/03/18 07:00:10;;;;;;;3.00;1.90;;;;;;;33.58;4.60;101687.66;5013065;28;20511;-52
2023/03/18 07:02:36;;;;;;;4.20;1.83;;;;;;;34.37;4.32;101706.22;4995645;28;20429;-52
2023/03/18 07:05:03;;;;;;;3.05;2.22;;;;;;;34.84;3.93;101685.13;5013055;28;20036;-55
2023/03/18 07:07:29;;;;;;;3.33;1.70;;;;;;;35.43;3.92;101709.28;5023857;28;20037;-56
2023/03/18 07:09:55;;;;;;;6.03;2.55;;;;;;;35.88;3.53;101708.56;5032580;28;20030;-51
2023/03/18 07:12:20;;;;;;;5.05;2.63;;;;;;;36.08;3.41;101710.09;5032450;28;20025;-53
2023/03/18 07:14:46;;;;;;;3.25;2.50;;;;;;;36.44;3.38;101705.16;5031699;28;20030;-55
2023/03/18 07:17:13;;;;;;;6.15;2.40;;;;;;;36.33;3.58;101698.56;5019476;28;20034;-59
2023/03/18 07:19:39;;;;;;;8.13;2.33;;;;;;;35.85;3.23;101689.56;5031976;28;20029;-56
2023/03/18 07:22:04;;;;;;;10.82;2.30;;;;;;;35.29;3.02;101697.56;5031240;28;20036;-57
2023/03/18 07:24:30;;;;;;;5.18;2.22;;;;;;;34.41;3.55;101704.66;5031364;28;20411;-58
2023/03/18 07:26:55;;;;;;;5.07;1.90;;;;;;;34.00;2.96;101706.34;5025330;28;20033;-48
2023/03/18 07:29:21;;;;;;;8.10;2.22;;;;;;;33.21;3.40;101682.94;5049115;28;20071;-52
2023/03/18 07:31:47;;;;;;;5.68;2.10;;;;;;;33.18;3.37;101691.72;5038304;28;20021;-60
2023/03/18 07:34:13;;;;;;;7.90;2.00;;;;;;;33.58;3.28;101693.19;5031343;28;20045;-58
2023/03/18 07:36:40;;;;;;;8.27;2.22;;;;;;;33.45;3.08;101686.75;5032307;28;20137;-56
2023/03/18 07:39:09;;;;;;;6.43;2.38;;;;;;;32.68;3.30;101660.19;5032253;28;20048;-59
2023/03/18 07:41:34;;;;;;;3.05;2.08;;;;;;;31.99;3.40;101707.16;5030532;28;20468;-61
2023/03/18 07:44:00;;;;;;;5.28;2.08;;;;;;;31.24;3.83;101692.72;5031657;28;20098;-61
2023/03/18 07:46:26;;;;;;;5.20;2.28;;;;;;;31.87;4.13;101691.25;5030983;28;20455;-56
2023/03/18 07:48:52;;;;;;;9.80;4.82;;;;;;;32.44;4.14;101707.09;5031869;28;20045;-61
2023/03/18 07:51:18;;;;;;;5.78;2.20;;;;;;;31.13;3.36;101709.97;5031848;28;20034;-62
2023/03/18 07:53:44;;;;;;;2.85;1.88;;;;;;;29.87;3.89;101694.72;5031538;28;20033;-63
2023/03/18 07:56:09;;;;;;;3.83;1.75;;;;;;;29.08;3.75;101683.91;5023009;28;20460;-53
2023/03/18 07:58:36;;;;;;;4.38;2.45;;;;;;;28.31;4.34;101702.13;5012100;28;20083;-62
2023/03/18 08:01:02;;;;;;;5.95;1.88;;;;;;;26.58;4.89;101701.16;5012116;28;20120;-62
2023/03/18 08:03:28;;;;;;;4.28;1.67;;;;;;;24.42;5.39;101686.47;5011897;28;20041;-54
2023/03/18 08:05:54;;;;;;;5.15;1.48;;;;;;;21.89;5.94;101646.22;5012521;28;20066;-50
2023/03/18 08:08:21;;;;;;;2.15;1.60;;;;;;;19.35;7.22;101715.09;5031906;28;20466;-55
2023/03/18 08:10:47;;;;;;;2.83;1.83;;;;;;;16.55;9.06;101706.16;5032005;28;20030;-55
2023/03/18 08:13:12;;;;;;;4.32;2.05;;;;;;;13.89;11.66;101698.44;5031757;28;20127;-55
2023/03/18 08:15:39;;;;;;;6.47;1.75;;;;;;;12.51;11.94;101708.66;5031659;28;20042;-68
2023/03/18 08:18:04;;;;;;;4.18;1.80;;;;;;;11.08;12.91;101708.44;5031488;28;20044;-65
2023/03/18 08:20:30;;;;;;;4.30;1.77;;;;;;;10.38;14.26;101710.16;5030843;28;20037;-56
2023/03/18 08:22:56;;;;;;;7.47;2.08;;;;;;;9.67;14.55;101700.16;5028731;28;20043;-59
2023/03/18 08:25:22;;;;;;;3.83;1.75;;;;;;;9.32;14.92;101717.72;5032101;28;20357;-59
2023/03/18 08:27:49;;;;;;;3.38;2.30;;;;;;;8.99;15.07;101702.28;5012665;28;20038;-57
2023/03/18 08:30:15;;;;;;;5.50;2.20;;;;;;;8.70;16.10;101707.09;5010669;28;20048;-58
2023/03/18 08:32:42;;;;;;;6.07;2.15;;;;;;;8.50;15.79;101707.91;5010906;28;20401;-55
2023/03/18 08:35:08;;;;;;;8.32;2.25;;;;;;;8.39;16.13;101716.31;5012142;28;20030;-57
2023/03/18 08:37:35;;;;;;;4.25;2.50;;;;;;;7.77;17.25;101702.78;5012004;28;20069;-55
2023/03/18 08:40:01;;;;;;;9.38;1.98;;;;;;;7.50;17.07;101718.00;5011663;28;20042;-56
2023/03/18 08:42:27;;;;;;;13.13;2.67;;;;;;;7.17;17.91;101709.41;5028772;28;20033;-56
2023/03/18 08:44:53;;;;;;;6.70;2.40;;;;;;;6.96;17.83;101700.38;5032817;28;20037;-57
2023/03/18 08:47:20;;;;;;;7.55;2.30;;;;;;;6.87;18.19;101720.22;5034339;28;20044;-57
2023/03/18 08:49:45;;;;;;;8.20;2.47;;;;;;;6.83;18.60;101715.06;5035005;28;20460;-51
2023/03/18 08:52:11;;;;;;;5.50;2.53;;;;;;;6.84;18.34;101712.31;5018065;28;20030;-57
2023/03/18 08:54:36;;;;;;;4.38;1.90;;;;;;;6.96;18.12;101705.69;5014751;28;20036;-57
2023/03/18 08:57:02;;;;;;;5.05;2.05;;;;;;;6.85;18.37;101710.53;5015063;28;20515;-58
2023/03/18 08:59:27;;;;;;;7.22;2.10;;;;;;;6.62;18.21;101669.63;5015110;28;20400;-57
2023/03/18 09:01:53;;;;;;;3.55;1.52;;;;;;;6.72;18.14;101708.28;5015752;28;20029;-56
2023/03/18 09:04:19;;;;;;;5.28;2.17;;;;;;;6.56;17.99;101686.66;5015432;28;20338;-56
2023/03/18 09:06:44;;;;;;;6.70;2.53;;;;;;;6.60;18.41;101704.25;5029961;28;20029;-55
2023/03/18 09:09:10;;;;;;;3.63;1.48;;;;;;;6.72;16.75;101702.97;5034807;28;20385;-54
2023/03/18 09:11:36;;;;;;;3.38;1.95;;;;;;;6.40;16.87;101678.31;5034191;28;20029;-56
2023/03/18 09:14:02;;;;;;;7.50;2.35;;;;;;;6.42;17.17;101695.09;5035005;28;20033;-57
2023/03/18 09:16:27;;;;;;;5.13;2.17;;;;;;;6.23;18.55;101699.28;5019758;28;20053;-57
2023/03/18 09:18:53;;;;;;;6.05;2.30;;;;;;;6.04;18.80;101694.56;5014103;28;20045;-57
2023/03/18 09:21:19;;;;;;;6.50;1.92;;;;;;;6.22;17.91;101686.91;5014810;28;20459;-57
2023/03/18 09:23:44;;;;;;;5.78;2.05;;;;;;;6.26;18.58;101688.53;5015379;28;20073;-58
2023/03/18 09:26:10;;;;;;;6.28;2.20;;;;;;;6.32;18.72;101677.72;5013874;28;20049;-58
2023/03/18 09:28:36;;;;;;;4.78;2.28;;;;;;;6.45;18.62;101702.97;5014101;28;20125;-55
2023/03/18 09:31:02;;;;;;;5.95;2.30;;;;;;;6.47;16.86;101686.97;5027039;28;20295;-59
2023/03/18 09:33:28;;;;;;;4.90;1.70;;;;;;;6.46;17.10;101690.56;5034833;28;20076;-55
2023/03/18 09:35:53;;;;;;;3.90;2.30;;;;;;;6.33;17.61;101690.09;5034526;28;20061;-58
2023/03/18 09:38:19;;;;;;;3.17;2.00;;;;;;;6.40;17.22;101702.28;5032639;28;20503;-55
2023/03/18 09:41:07;;;;;;;4.72;1.95;;;;;;;6.59;17.02;101678.56;5022505;28;20472;-58
2023/03/18 09:43:54;;;;;;;4.60;1.83;;;;;;;6.49;17.39;101679.81;5014734;28;20032;-59
2023/03/18 09:46:44;;;;;;;5.57;1.90;;;;;;;6.22;16.87;101673.59;5014374;28;20022;-55
2023/03/18 09:49:21;;;;;;;4.95;1.83;;;;;;;6.09;16.94;101671.34;5014242;28;20238;-57
2023/03/18 09:52:36;;;;;;;5.75;2.30;;;;;;;6.26;17.67;101672.56;5014379;28;20115;-56
2023/03/18 09:55:16;;;;;;;7.38;2.47;;;;;;;6.18;17.71;101657.75;5032404;28;20084;-56
2023/03/18 09:57:45;;;;;;;4.07;2.00;;;;;;;6.33;17.33;101674.13;5071454;28;20041;-56
2023/03/18 10:00:19;;;;;;;3.17;1.90;;;;;;;6.32;17.15;101664.41;5020169;28;20141;-56
2023/03/18 10:03:23;;;;;;;3.63;2.05;;;;;;;6.40;16.89;101661.50;5014056;28;20061;-57
2023/03/18 10:05:49;;;;;;;5.28;2.10;;;;;;;6.13;17.82;101651.72;5012751;28;20104;-58
2023/03/18 10:08:26;;;;;;;4.88;2.08;;;;;;;6.20;18.27;101657.72;5014028;28;20406;-58
2023/03/18 10:10:52;;;;;;;3.08;1.90;;;;;;;6.14;17.91;101639.28;5013903;28;20049;-57
2023/03/18 10:13:59;;;;;;;5.10;2.53;;;;;;;6.42;17.69;101651.69;5013029;28;20400;-59
2023/03/18 10:16:29;;;;;;;4.78;1.90;;;;;;;6.42;17.12;101659.66;5022543;28;20052;-61
2023/03/18 10:18:56;;;;;;;5.22;1.98;;;;;;;6.20;17.81;101640.88;5013664;28;20534;-56
2023/03/18 10:22:05;;;;;;;5.10;2.00;;;;;;;6.30;17.77;101642.31;5012438;28;20341;-57
2023/03/18 10:24:44;;;;;;;5.05;2.25;;;;;;;6.26;17.69;101643.31;5030180;28;20483;-57
2023/03/18 10:27:44;;;;;;;3.42;1.67;;;;;;;6.31;17.52;101642.25;5033116;28;20033;-59
2023/03/18 10:30:18;;;;;;;3.00;1.92;;;;;;;6.32;17.11;101653.78;5033470;28;20536;-58
2023/03/18 10:33:02;;;;;;;2.55;1.63;;;;;;;6.21;16.72;101610.69;5013727;28;20061;-56
2023/03/18 10:35:51;;;;;;;5.38;2.05;;;;;;;6.33;16.92;101636.91;5012595;28;20120;-55
2023/03/18 10:38:30;;;;;;;4.03;2.00;;;;;;;6.27;17.29;101627.31;5028677;28;20137;-56
2023/03/18 10:40:57;;;;;;;5.65;1.95;;;;;;;6.21;17.36;101621.34;5012724;28;20536;-58
2023/03/18 10:43:29;;;;;;;9.00;1.75;;;;;;;6.32;18.00;101628.03;5013407;28;20072;-54
2023/03/18 10:46:08;;;;;;;4.65;2.22;;;;;;;6.45;17.99;101620.50;5012124;28;20452;-59
2023/03/18 10:48:46;;;;;;;6.78;1.55;;;;;;;6.51;17.23;101629.19;5013820;28;20050;-56
2023/03/18 10:51:20;;;;;;;3.85;1.80;;;;;;;6.52;17.31;101622.97;5014229;28;20041;-58
2023/03/18 10:54:14;;;;;;;2.47;1.42;;;;;;;6.49;16.55;101617.72;5012918;28;20048;-56
2023/03/18 10:56:39;;;;;;;4.03;1.63;;;;;;;6.30;16.32;101615.72;5012440;28;20037;-56
2023/03/18 10:59:16;;;;;;;2.78;1.65;;;;;;;6.11;17.02;101594.16;5012947;28;20034;-57
2023/03/18 11:01:46;;;;;;;7.13;2.03;;;;;;;6.15;17.20;101617.97;5013079;28;20022;-55
2023/03/18 11:04:15;;;;;;;3.95;2.03;;;;;;;6.27;16.73;101626.44;5015073;28;20022;-56
2023/03/18 11:06:49;;;;;;;4.03;2.03;;;;;;;6.18;16.50;101612.53;5032521;28;20466;-59
2023/03/18 11:09:20;;;;;;;3.38;1.80;;;;;;;6.18;16.79;101623.16;5032820;28;20029;-58
2023/03/18 11:11:48;;;;;;;5.78;1.92;;;;;;;6.10;17.01;101613.72;5032449;28;20031;-58
2023/03/18 11:14:19;;;;;;;4.57;2.08;;;;;;;5.75;16.79;101576.69;5032347;28;20029;-55
2023/03/18 11:17:03;;;;;;;3.83;2.08;;;;;;;5.88;18.08;101607.28;5031061;28;20025;-58
2023/03/18 11:19:38;;;;;;;2.78;2.00;;;;;;;5.89;17.92;101605.47;5032072;28;20471;-56
2023/03/18 11:22:10;;;;;;;5.40;2.00;;;;;;;6.34;17.16;101601.38;5031961;28;20326;-61
2023/03/18 11:24:43;;;;;;;4.40;1.90;;;;;;;6.07;17.35;101598.75;5014948;28;20040;-57
2023/03/18 11:27:15;;;;;;;5.72;2.50;;;;;;;6.25;18.37;101597.25;5032492;28;20436;-58
2023/03/18 11:29:49;;;;;;;7.25;2.70;;;;;;;6.06;18.42;101610.31;5032487;28;20029;-55
2023/03/18 11:32:27;;;;;;;5.28;2.70;;;;;;;6.04;18.69;101604.16;5019320;28;20042;-56
2023/03/18 11:35:04;;;;;;;4.40;2.53;;;;;;;5.92;18.58;101596.53;5012256;28;20045;-55
2023/03/18 11:37:36;;;;;;;5.60;2.28;;;;;;;5.84;18.21;101595.00;5013942;28;20042;-56